Time;durP1;ratioP1;P1;durP2;ratioP2;P2;SDS_P1;SDS_P2;PMS_P1;PMS_P2;Temp;Humidity;BMP_temperature;BMP_pressure;BME280_temperature;BME280_humidity;BME280_pressure;Samples;Min_cycle;Max_cycle;Signal;HPM_P1;HPM_P2
2023/12/24 00:01:58;;;;;;;4.35;0.63;;;;;;;10.62;81.65;99131.63;4981259;28;20053;-46
2023/12/24 00:04:25;;;;;;;1.63;1.00;;;;;;;10.67;80.85;99139.31;4983550;28;20061;-49
2023/12/24 00:06:51;;;;;;;0.85;0.68;;;;;;;10.65;80.89;99136.78;4982556;28;20490;-44
2023/12/24 00:09:18;;;;;;;0.95;0.43;;;;;;;10.63;81.95;99124.72;4988279;28;20051;-45
2023/12/24 00:11:46;;;;;;;1.40;0.65;;;;;;;10.65;80.98;99120.38;4986735;28;20042;-49
2023/12/24 00:14:13;;;;;;;1.67;0.95;;;;;;;10.66;81.76;99112.56;4978193;28;20050;-48
2023/12/24 00:16:41;;;;;;;1.02;0.85;;;;;;;10.67;81.24;99103.06;4984239;28;20046;-48
2023/12/24 00:19:08;;;;;;;1.25;0.60;;;;;;;10.59;81.93;99116.16;4992662;28;20050;-44
2023/12/24 00:21:35;;;;;;;0.85;0.57;;;;;;;10.64;81.35;99108.31;4986763;28;20100;-54
2023/12/24 00:24:03;;;;;;;1.35;0.73;;;;;;;10.62;81.79;99110.06;4990457;28;20058;-48
2023/12/24 00:26:31;;;;;;;1.50;0.43;;;;;;;10.59;82.30;99104.94;4986874;28;20057;-46
2023/12/24 00:28:58;;;;;;;1.00;0.88;;;;;;;10.64;81.35;99116.06;4986457;28;20078;-49
2023/12/24 00:31:24;;;;;;;1.30;0.93;;;;;;;10.63;81.44;99107.44;4993077;28;20097;-52
2023/12/24 00:33:51;;;;;;;1.65;1.10;;;;;;;10.60;82.33;99098.88;4988510;28;20089;-47
2023/12/24 00:36:18;;;;;;;0.68;0.60;;;;;;;10.62;82.51;99100.56;4987438;28;20740;-49
2023/12/24 00:38:45;;;;;;;1.13;0.93;;;;;;;10.66;81.38;99096.16;4988268;28;20043;-47
2023/12/24 00:41:12;;;;;;;1.40;0.57;;;;;;;10.62;82.79;99094.53;4976799;28;20412;-53
2023/12/24 00:43:39;;;;;;;2.10;1.55;;;;;;;10.65;81.56;99104.84;4986660;28;20046;-52
2023/12/24 00:46:06;;;;;;;2.70;1.52;;;;;;;10.65;81.80;99102.25;4990118;28;20050;-45
2023/12/24 00:48:32;;;;;;;3.30;1.50;;;;;;;10.71;81.54;99099.53;4990775;28;20046;-47
2023/12/24 00:50:59;;;;;;;1.33;1.02;;;;;;;10.68;81.79;99091.84;4984467;28;20077;-51
2023/12/24 00:53:27;;;;;;;3.35;1.55;;;;;;;10.71;82.39;99096.94;4981752;28;20051;-53
2023/12/24 00:55:54;;;;;;;7.47;3.22;;;;;;;10.73;81.73;99091.72;4985132;28;20057;-45
2023/12/24 00:58:20;;;;;;;7.47;2.83;;;;;;;10.75;82.30;99087.38;4987777;28;20058;-45
2023/12/24 01:00:48;;;;;;;5.85;2.75;;;;;;;10.77;82.05;99077.84;4989465;28;20412;-49
2023/12/24 01:03:15;;;;;;;1.58;1.35;;;;;;;10.75;81.52;99070.13;4985075;28;20050;-43
2023/12/24 01:05:42;;;;;;;4.93;1.80;;;;;;;10.78;82.43;99076.97;4981387;28;20407;-44
2023/12/24 01:08:10;;;;;;;6.53;2.03;;;;;;;10.82;81.13;99069.97;4984258;28;20113;-46
2023/12/24 01:10:37;;;;;;;4.05;2.17;;;;;;;10.79;81.34;99064.00;4987600;28;20219;-47
2023/12/24 01:13:04;;;;;;;2.88;1.75;;;;;;;10.74;82.87;99078.75;4984249;28;20065;-52
2023/12/24 01:15:30;;;;;;;7.15;3.00;;;;;;;10.79;81.46;99071.75;4982705;28;20062;-42
2023/12/24 01:17:57;;;;;;;3.92;1.88;;;;;;;10.83;81.90;99063.91;4990493;28;20053;-45
2023/12/24 01:20:24;;;;;;;2.40;1.05;;;;;;;10.79;82.29;99056.22;4979469;28;20059;-48
2023/12/24 01:22:51;;;;;;;4.72;1.85;;;;;;;10.83;81.43;99058.72;4983273;28;20132;-47
2023/12/24 01:25:17;;;;;;;1.88;1.10;;;;;;;10.84;82.12;99055.28;4981645;28;21931;-49
2023/12/24 01:27:44;;;;;;;1.23;0.88;;;;;;;10.85;82.46;99070.78;4986016;28;20047;-51
2023/12/24 01:30:11;;;;;;;2.17;0.80;;;;;;;10.86;81.62;99076.81;4983776;28;20051;-46
2023/12/24 01:32:39;;;;;;;5.45;1.30;;;;;;;10.87;81.78;99075.91;4984897;28;20455;-46
2023/12/24 01:35:06;;;;;;;1.95;1.42;;;;;;;10.85;82.38;99069.94;4988125;28;20132;-44
2023/12/24 01:37:33;;;;;;;2.17;0.85;;;;;;;10.88;82.35;99059.50;4981898;28;20129;-42
2023/12/24 01:40:01;;;;;;;4.93;2.35;;;;;;;10.93;82.55;99075.81;4984998;28;20560;-47
2023/12/24 01:42:28;;;;;;;2.00;0.82;;;;;;;10.91;81.60;99064.63;4988212;28;20416;-51
2023/12/24 01:44:56;;;;;;;2.85;0.82;;;;;;;10.94;81.91;99064.56;4990448;28;20047;-49
2023/12/24 01:47:22;;;;;;;1.05;0.88;;;;;;;10.95;82.60;99068.00;4986586;28;20060;-47
2023/12/24 01:49:50;;;;;;;1.90;1.20;;;;;;;11.00;81.16;99059.25;4990060;28;20128;-46
2023/12/24 01:52:17;;;;;;;3.75;1.42;;;;;;;11.00;81.84;99074.81;4986995;28;20058;-47
2023/12/24 01:54:47;;;;;;;2.05;0.63;;;;;;;11.02;81.02;99067.84;4980323;28;20062;-51
2023/12/24 01:57:15;;;;;;;1.60;0.20;;;;;;;11.01;81.08;99060.13;5014626;28;20641;-50
2023/12/24 01:59:43;;;;;;;0.88;0.57;;;;;;;11.03;81.29;99063.53;5015424;28;20050;-45
2023/12/24 02:02:12;;;;;;;2.42;0.50;;;;;;;11.07;80.84;99053.97;4984669;28;20112;-44
2023/12/24 02:04:39;;;;;;;2.63;1.63;;;;;;;11.08;81.41;99061.66;4987788;28;20054;-48
2023/12/24 02:07:07;;;;;;;2.10;0.93;;;;;;;11.06;82.11;99045.31;4979633;28;20051;-51
2023/12/24 02:09:33;;;;;;;1.83;0.70;;;;;;;11.08;82.27;99051.31;4984055;28;20054;-44
2023/12/24 02:12:00;;;;;;;2.35;1.40;;;;;;;11.09;82.12;99052.16;4981767;28;20044;-43
2023/12/24 02:14:27;;;;;;;1.75;1.08;;;;;;;11.11;80.85;99056.44;4981957;28;20687;-48
2023/12/24 02:16:55;;;;;;;1.80;1.08;;;;;;;11.12;80.93;99055.56;4988925;28;20049;-50
2023/12/24 02:19:22;;;;;;;1.35;1.15;;;;;;;11.13;81.64;99053.81;4990336;28;20050;-53
2023/12/24 02:21:49;;;;;;;0.93;0.68;;;;;;;11.09;82.38;99067.72;4989775;28;20042;-48
2023/12/24 02:24:17;;;;;;;2.45;0.95;;;;;;;11.18;81.45;99062.38;4992290;28;20057;-44
2023/12/24 02:29:32;;;;;;;1.77;1.67;;;;;;;11.14;82.28;99055.50;5052822;28;20396;-43
2023/12/24 02:32:07;;;;;;;0.98;0.68;;;;;;;11.18;81.86;99049.41;5043924;28;20452;-44
2023/12/24 02:34:37;;;;;;;3.50;2.53;;;;;;;11.22;81.36;99053.63;5044398;28;20053;-51
2023/12/24 02:37:06;;;;;;;1.95;1.85;;;;;;;11.22;82.13;99043.28;5044977;28;20053;-50
2023/12/24 02:39:37;;;;;;;2.20;2.05;;;;;;;11.17;82.42;99050.28;5045869;28;20053;-47
2023/12/24 02:42:04;;;;;;;3.53;3.33;;;;;;;11.19;81.52;99054.53;5041155;28;20045;-53
2023/12/24 02:44:34;;;;;;;3.95;3.58;;;;;;;11.20;81.35;99052.81;5036454;28;20057;-55
2023/12/24 02:47:00;;;;;;;2.38;2.17;;;;;;;11.18;81.87;99041.63;5037717;28;20049;-44
2023/12/24 02:49:27;;;;;;;1.95;1.85;;;;;;;11.18;82.58;99042.47;5035416;28;20057;-44
2023/12/24 02:51:53;;;;;;;1.58;0.88;;;;;;;11.20;82.81;99039.84;5036756;28;20445;-47
2023/12/24 02:54:20;;;;;;;2.00;1.90;;;;;;;11.15;82.28;99036.50;5039297;28;20053;-52
2023/12/24 02:56:48;;;;;;;2.20;2.10;;;;;;;11.20;82.35;99024.28;5037151;28;20061;-45
2023/12/24 02:59:14;;;;;;;1.92;1.83;;;;;;;11.19;81.57;99027.78;5037323;28;20083;-50
2023/12/24 03:01:41;;;;;;;2.65;2.38;;;;;;;11.20;83.12;99021.69;5038956;28;20079;-52
2023/12/24 03:04:08;;;;;;;1.88;1.77;;;;;;;11.23;81.64;99008.69;5029571;28;20053;-49
2023/12/24 03:06:34;;;;;;;1.88;1.77;;;;;;;11.24;81.97;99009.50;5057229;28;20049;-50
2023/12/24 03:09:01;;;;;;;1.27;1.27;;;;;;;11.25;83.05;99009.47;5058864;28;20041;-48
2023/12/24 03:11:29;;;;;;;2.30;2.20;;;;;;;11.25;82.21;99027.63;5060002;28;20632;-47
2023/12/24 03:13:56;;;;;;;1.75;1.65;;;;;;;11.24;82.45;99020.75;5055394;28;20501;-50
2023/12/24 03:16:23;;;;;;;2.83;2.53;;;;;;;11.29;82.93;99016.31;5058614;28;20155;-49
2023/12/24 03:18:49;;;;;;;1.70;1.60;;;;;;;11.27;82.94;99019.81;5063906;28;20041;-50
2023/12/24 03:21:16;;;;;;;1.92;1.83;;;;;;;11.28;82.50;99006.81;5067116;28;20084;-54
2023/12/24 03:23:43;;;;;;;1.90;1.80;;;;;;;11.28;83.50;99006.81;5060153;28;20490;-47
2023/12/24 03:26:25;;;;;;;4.13;2.58;;;;;;;11.29;82.33;99002.50;5055333;28;20060;-45
2023/12/24 03:28:54;;;;;;;1.95;1.85;;;;;;;11.34;82.39;99005.00;5059145;28;20049;-44
2023/12/24 03:31:21;;;;;;;1.95;1.85;;;;;;;11.36;81.79;99000.63;5058346;28;20110;-46
2023/12/24 03:33:47;;;;;;;2.65;2.47;;;;;;;11.37;82.12;98998.00;5054596;28;20048;-48
2023/12/24 03:36:14;;;;;;;1.77;1.67;;;;;;;11.40;82.78;98984.09;5055451;28;20506;-47
2023/12/24 03:38:41;;;;;;;1.67;1.58;;;;;;;11.40;82.15;98995.34;5060794;28;20061;-46
2023/12/24 03:41:07;;;;;;;2.95;2.13;;;;;;;11.42;81.62;98987.53;5049005;28;20418;-50
2023/12/24 03:43:35;;;;;;;2.63;2.42;;;;;;;11.46;82.40;98998.66;5047695;28;20045;-47
2023/12/24 03:46:01;;;;;;;2.08;1.98;;;;;;;11.46;82.41;98976.19;5039718;28;20049;-50
2023/12/24 03:48:29;;;;;;;5.82;3.45;;;;;;;11.50;82.48;98975.22;5038584;28;20037;-46
2023/12/24 03:50:56;;;;;;;1.98;1.88;;;;;;;11.49;81.63;98989.09;5042920;28;20537;-54
2023/12/24 03:53:22;;;;;;;2.00;1.90;;;;;;;11.49;82.89;98983.91;5040400;28;20406;-49
2023/12/24 03:55:49;;;;;;;2.22;2.03;;;;;;;11.54;81.91;98987.22;5048031;28;20828;-50
2023/12/24 03:58:16;;;;;;;2.17;2.08;;;;;;;11.55;81.27;98980.31;5041978;28;20064;-56
2023/12/24 04:00:42;;;;;;;2.63;2.45;;;;;;;11.60;82.49;98972.41;5041495;28;20049;-49
2023/12/24 04:03:09;;;;;;;2.45;2.25;;;;;;;11.62;82.28;98978.41;5047792;28;20551;-48
2023/12/24 04:05:36;;;;;;;2.03;1.92;;;;;;;11.62;82.45;98963.69;5039775;28;20047;-43
2023/12/24 04:08:04;;;;;;;2.22;1.75;;;;;;;11.64;82.57;98950.69;5039658;28;20218;-47
2023/12/24 04:10:32;;;;;;;2.03;1.80;;;;;;;11.61;81.79;98956.81;5042354;28;20045;-52
2023/12/24 04:13:00;;;;;;;2.55;2.35;;;;;;;11.67;81.07;98963.59;5042172;28;20049;-41
2023/12/24 04:15:27;;;;;;;3.05;2.38;;;;;;;11.66;82.43;98967.91;5042338;28;20052;-55
2023/12/24 04:17:54;;;;;;;1.98;1.88;;;;;;;11.67;82.25;98971.38;5040710;28;20045;-48
2023/12/24 04:20:20;;;;;;;1.88;1.77;;;;;;;11.68;82.80;98965.28;5039059;28;20403;-48
2023/12/24 04:22:47;;;;;;;3.08;1.90;;;;;;;11.69;81.97;98964.41;5038267;28;20113;-46
2023/12/24 04:25:14;;;;;;;2.78;2.58;;;;;;;11.73;82.22;98966.03;5048623;28;20047;-52
2023/12/24 04:27:40;;;;;;;2.20;2.10;;;;;;;11.71;82.27;98965.22;5046661;28;20487;-48
2023/12/24 04:30:08;;;;;;;2.45;2.08;;;;;;;11.80;81.18;98967.59;5038957;28;20053;-53
2023/12/24 04:32:34;;;;;;;4.28;3.45;;;;;;;11.85;81.55;98969.22;5046330;28;20049;-50
2023/12/24 04:35:03;;;;;;;2.55;2.35;;;;;;;11.79;81.88;98971.06;5047351;28;20102;-45
2023/12/24 04:37:30;;;;;;;2.53;2.33;;;;;;;11.87;81.11;98968.28;5043473;28;20556;-46
2023/12/24 04:39:57;;;;;;;2.50;2.30;;;;;;;11.90;82.34;98964.75;5046186;28;20049;-47
2023/12/24 04:42:24;;;;;;;3.80;2.95;;;;;;;11.92;82.42;98960.38;5042437;28;20049;-51
2023/12/24 04:44:52;;;;;;;2.10;1.90;;;;;;;11.93;81.66;98962.09;5045748;28;20057;-44
2023/12/24 04:47:18;;;;;;;2.53;2.33;;;;;;;12.00;81.92;98958.44;5046243;28;20055;-47
2023/12/24 04:49:45;;;;;;;2.47;2.13;;;;;;;12.05;82.37;98972.13;5045492;28;20052;-51
2023/12/24 04:52:12;;;;;;;2.80;1.95;;;;;;;12.10;82.57;98964.28;5043329;28;20041;-45
2023/12/24 04:54:40;;;;;;;1.77;1.67;;;;;;;12.12;82.61;98969.44;5045946;28;20049;-47
2023/12/24 04:57:06;;;;;;;2.15;1.95;;;;;;;12.14;82.68;98970.22;5047201;28;20505;-53
2023/12/24 04:59:33;;;;;;;2.05;1.95;;;;;;;12.16;82.12;98963.25;5044864;28;20040;-49
2023/12/24 05:02:01;;;;;;;0.77;0.28;;;;;;;12.16;81.72;98960.66;5046744;28;20788;-50
2023/12/24 05:04:32;;;;;;;1.95;1.85;;;;;;;12.19;81.97;98943.25;5044671;28;20069;-48
2023/12/24 05:07:01;;;;;;;2.05;1.75;;;;;;;12.21;81.55;98958.78;5046861;28;20129;-48
2023/12/24 05:09:28;;;;;;;1.80;1.70;;;;;;;12.25;82.11;98944.81;5046939;28;20087;-46
2023/12/24 05:11:55;;;;;;;1.80;1.70;;;;;;;12.22;81.81;98952.69;5041661;28;20041;-48
2023/12/24 05:14:22;;;;;;;1.88;1.77;;;;;;;12.25;81.54;98942.22;5046050;28;20053;-46
2023/12/24 05:16:49;;;;;;;3.55;2.65;;;;;;;12.28;81.86;98947.34;5046995;28;20080;-49
2023/12/24 05:19:15;;;;;;;2.13;1.85;;;;;;;12.30;81.61;98937.75;5044193;28;20128;-54
2023/12/24 05:21:42;;;;;;;2.45;1.90;;;;;;;12.23;82.22;98938.84;5047130;28;20068;-47
2023/12/24 05:24:10;;;;;;;3.20;2.90;;;;;;;12.30;81.99;98935.16;5050429;28;20052;-50
2023/12/24 05:26:36;;;;;;;2.88;2.58;;;;;;;12.35;81.67;98922.06;5040685;28;20562;-47
2023/12/24 05:29:03;;;;;;;2.03;1.92;;;;;;;12.34;81.07;98916.00;5039444;28;20056;-50
2023/12/24 05:31:31;;;;;;;2.17;2.08;;;;;;;12.29;81.50;98907.50;5037667;28;20080;-45
2023/12/24 05:33:58;;;;;;;1.77;1.67;;;;;;;12.30;80.98;98924.78;5044590;28;20049;-49
2023/12/24 05:36:25;;;;;;;2.08;1.98;;;;;;;12.33;82.03;98911.72;5043035;28;20187;-43
2023/12/24 05:38:51;;;;;;;1.98;1.88;;;;;;;12.32;80.92;98907.41;5046000;28;20049;-49
2023/12/24 05:41:18;;;;;;;1.73;1.63;;;;;;;12.30;82.26;98910.97;5043987;28;20052;-46
2023/12/24 05:43:45;;;;;;;1.98;1.88;;;;;;;12.35;81.10;98922.06;5044542;28;20041;-49
2023/12/24 05:46:13;;;;;;;2.45;2.25;;;;;;;12.35;81.58;98922.06;5043908;28;20049;-51
2023/12/24 05:48:41;;;;;;;1.98;1.80;;;;;;;12.31;81.57;98926.50;5040161;28;20044;-47
2023/12/24 05:51:09;;;;;;;2.30;2.20;;;;;;;12.27;81.40;98924.88;5039893;28;20056;-48
2023/12/24 05:53:35;;;;;;;1.48;1.45;;;;;;;12.28;81.34;98903.22;5039021;28;20072;-47
2023/12/24 05:56:02;;;;;;;1.80;1.70;;;;;;;12.29;81.50;98910.09;5038171;28;20140;-49
2023/12/24 05:58:29;;;;;;;1.88;1.77;;;;;;;12.28;81.73;98902.34;5040073;28;20067;-47
2023/12/24 06:00:56;;;;;;;1.88;1.77;;;;;;;12.29;80.70;98902.31;5043602;28;20067;-48
2023/12/24 06:03:24;;;;;;;3.17;2.42;;;;;;;12.30;81.68;98897.97;5048537;28;20079;-49
2023/12/24 06:05:52;;;;;;;2.40;0.57;;;;;;;12.31;81.24;98904.88;5043356;28;20434;-44
2023/12/24 06:08:20;;;;;;;1.83;1.73;;;;;;;12.30;81.27;98888.41;5039548;28;20077;-49
2023/12/24 06:10:49;;;;;;;1.63;1.52;;;;;;;12.31;81.95;98884.97;5038289;28;20067;-48
2023/12/24 06:13:15;;;;;;;2.80;1.90;;;;;;;12.29;81.45;98889.31;5038720;28;20060;-48
2023/12/24 06:15:42;;;;;;;3.13;0.85;;;;;;;12.31;81.66;98871.97;5046151;28;20572;-51
2023/12/24 06:18:09;;;;;;;4.20;3.53;;;;;;;12.36;81.28;98870.97;5045607;28;20100;-48
2023/12/24 06:20:37;;;;;;;1.88;1.77;;;;;;;12.33;82.43;98880.56;5047112;28;20049;-48
2023/12/24 06:23:04;;;;;;;1.98;1.88;;;;;;;12.35;81.60;98885.69;5036451;28;20056;-45
2023/12/24 06:25:30;;;;;;;2.38;2.28;;;;;;;12.36;82.13;98891.75;5040116;28;20054;-48
2023/12/24 06:27:57;;;;;;;2.05;1.95;;;;;;;12.41;81.18;98888.13;5037963;28;20060;-49
2023/12/24 06:30:27;;;;;;;2.58;1.73;;;;;;;12.44;81.52;98890.66;5039943;28;20112;-48
2023/12/24 06:32:57;;;;;;;;;;;;;;;12.34;81.98;98890.03;5038105;28;20434;-49
2023/12/24 06:35:27;;;;;;;2.42;2.33;;;;;;;12.43;81.81;98877.72;5040833;28;19929;-52
2023/12/24 06:37:54;;;;;;;;;;;;;;;12.34;82.12;98879.66;5039207;28;20057;-52
2023/12/24 06:40:20;;;;;;;0.85;0.40;;;;;;;12.42;81.14;98869.06;5038824;28;20353;-41
2023/12/24 06:42:47;;;;;;;3.28;2.25;;;;;;;12.45;81.70;98873.31;5038670;28;20053;-51
2023/12/24 06:45:14;;;;;;;1.80;1.70;;;;;;;12.50;80.99;98874.00;5041058;28;20052;-44
2023/12/24 06:47:41;;;;;;;2.20;2.10;;;;;;;12.51;81.87;98854.94;5040181;28;20049;-50
2023/12/24 06:50:08;;;;;;;1.90;1.80;;;;;;;12.48;81.46;98860.22;5038361;28;20061;-48
2023/12/24 06:52:36;;;;;;;1.80;1.70;;;;;;;12.50;80.92;98863.63;5038697;28;20219;-50
2023/12/24 06:55:03;;;;;;;1.45;0.65;;;;;;;12.52;81.89;98851.44;5037328;28;20461;-49
2023/12/24 06:57:30;;;;;;;2.25;2.15;;;;;;;12.53;81.42;98854.91;5037634;28;20064;-42
2023/12/24 06:59:58;;;;;;;2.08;1.98;;;;;;;12.53;80.79;98847.94;5039096;28;20049;-45
2023/12/24 07:02:24;;;;;;;1.50;1.40;;;;;;;12.57;81.53;98849.56;5038193;28;20045;-47
2023/12/24 07:04:51;;;;;;;2.60;1.77;;;;;;;12.58;81.59;98853.88;5042224;28;20136;-48
2023/12/24 07:07:17;;;;;;;2.05;1.67;;;;;;;12.56;81.72;98847.84;5038108;28;20053;-45
2023/12/24 07:09:44;;;;;;;2.72;2.58;;;;;;;12.57;81.59;98839.16;5038020;28;20041;-48
2023/12/24 07:12:11;;;;;;;2.15;1.95;;;;;;;12.50;81.73;98837.66;5040345;28;20041;-43
2023/12/24 07:14:38;;;;;;;1.52;1.42;;;;;;;12.57;81.51;98833.97;5038605;28;20044;-53
2023/12/24 07:17:05;;;;;;;1.83;1.73;;;;;;;12.52;82.11;98840.19;5044672;28;20048;-50
2023/12/24 07:19:33;;;;;;;1.77;1.60;;;;;;;12.55;81.14;98835.78;5038901;28;20050;-48
2023/12/24 07:21:59;;;;;;;2.83;1.75;;;;;;;12.58;81.98;98819.25;5041052;28;20048;-47
2023/12/24 07:24:27;;;;;;;2.45;2.15;;;;;;;12.55;81.99;98835.78;5041498;28;20103;-50
2023/12/24 07:26:54;;;;;;;2.50;2.40;;;;;;;12.48;82.57;98839.47;5040969;28;20057;-50
2023/12/24 07:29:20;;;;;;;2.17;2.08;;;;;;;12.57;81.85;98841.75;5042638;28;20049;-46
2023/12/24 07:31:48;;;;;;;1.73;1.63;;;;;;;12.56;81.76;98824.47;5037768;28;20053;-45
2023/12/24 07:34:15;;;;;;;5.68;4.47;;;;;;;12.58;81.29;98820.13;5049621;28;20094;-48
2023/12/24 07:36:43;;;;;;;2.42;2.33;;;;;;;12.62;81.52;98809.59;5050623;28;20053;-51
2023/12/24 07:39:11;;;;;;;2.17;2.08;;;;;;;12.60;81.36;98809.69;5049537;28;20041;-44
2023/12/24 07:41:39;;;;;;;2.70;2.03;;;;;;;12.63;81.09;98795.75;5046613;28;20044;-46
2023/12/24 07:44:05;;;;;;;2.83;2.63;;;;;;;12.64;80.98;98792.22;5054107;28;20502;-45
2023/12/24 07:46:32;;;;;;;2.58;2.38;;;;;;;12.64;82.25;98792.22;5055830;28;20103;-50
2023/12/24 07:48:59;;;;;;;2.28;2.17;;;;;;;12.62;82.10;98791.41;5045110;28;20053;-50
2023/12/24 07:51:25;;;;;;;2.30;1.60;;;;;;;12.66;82.13;98795.66;5051381;28;20102;-45
2023/12/24 07:53:52;;;;;;;2.95;2.83;;;;;;;12.63;82.60;98790.53;5050392;28;20052;-54
2023/12/24 07:56:19;;;;;;;2.00;1.90;;;;;;;12.59;81.95;98780.25;5055606;28;20123;-44
2023/12/24 07:58:45;;;;;;;1.42;1.33;;;;;;;12.59;82.07;98788.03;5046844;28;20128;-51
2023/12/24 08:01:12;;;;;;;2.17;2.08;;;;;;;12.61;82.13;98798.38;5046786;28;20423;-48
2023/12/24 08:03:38;;;;;;;2.08;1.98;;;;;;;12.66;81.63;98780.88;5050615;28;20494;-43
2023/12/24 08:06:06;;;;;;;1.95;1.85;;;;;;;12.71;82.22;98783.34;5050886;28;20398;-53
2023/12/24 08:08:33;;;;;;;1.88;1.77;;;;;;;12.65;82.36;98789.59;5048802;28;20126;-46
2023/12/24 08:11:01;;;;;;;1.40;1.35;;;;;;;12.72;81.67;98803.22;5047605;28;20053;-45
2023/12/24 08:13:39;;;;;;;1.75;1.65;;;;;;;12.70;82.34;98789.47;5043729;28;20045;-50
2023/12/24 08:16:07;;;;;;;1.70;1.60;;;;;;;12.64;82.48;98779.25;5039596;28;20123;-48
2023/12/24 08:18:37;;;;;;;2.25;2.15;;;;;;;12.67;81.54;98773.97;5038966;28;20068;-48
2023/12/24 08:21:06;;;;;;;2.17;2.08;;;;;;;12.65;81.87;98771.41;5036758;28;20128;-48
2023/12/24 08:23:33;;;;;;;3.33;2.47;;;;;;;12.73;81.69;98771.16;5034056;28;20045;-46
2023/12/24 08:26:00;;;;;;;4.03;3.00;;;;;;;12.67;82.12;98773.97;5034990;28;20099;-47
2023/12/24 08:28:26;;;;;;;3.78;3.47;;;;;;;12.71;81.94;98778.97;5037547;28;20081;-46
2023/12/24 08:30:53;;;;;;;2.47;2.28;;;;;;;12.73;81.59;98755.56;5031526;28;20056;-54
2023/12/24 08:33:23;;;;;;;2.15;2.05;;;;;;;12.75;81.39;98774.56;5043183;28;20137;-48
2023/12/24 08:35:50;;;;;;;2.53;2.33;;;;;;;12.74;82.33;98759.88;5031977;28;20056;-48
2023/12/24 08:38:18;;;;;;;2.47;2.28;;;;;;;12.78;81.77;98758.88;5033502;28;20053;-50
2023/12/24 08:40:44;;;;;;;2.33;2.13;;;;;;;12.76;82.27;98760.66;5030404;28;20037;-45
2023/12/24 08:43:11;;;;;;;1.17;0.80;;;;;;;12.76;82.02;98757.22;5036493;28;20427;-44
2023/12/24 08:45:38;;;;;;;3.17;2.25;;;;;;;12.82;81.32;98751.81;5031826;28;20049;-48
2023/12/24 08:48:04;;;;;;;2.42;2.22;;;;;;;12.77;81.40;98767.53;5033487;28;20050;-51
2023/12/24 08:50:32;;;;;;;2.80;2.60;;;;;;;12.75;81.54;98764.16;5030429;28;20061;-50
2023/12/24 08:52:59;;;;;;;2.83;2.33;;;;;;;12.83;81.29;98758.69;5038721;28;20045;-44
2023/12/24 08:55:26;;;;;;;2.30;2.20;;;;;;;12.77;81.35;98767.53;5037153;28;20041;-48
2023/12/24 08:57:52;;;;;;;2.42;2.28;;;;;;;12.83;81.45;98788.16;5035595;28;20056;-52
2023/12/24 09:00:19;;;;;;;2.35;2.22;;;;;;;12.84;82.11;98810.63;5030210;28;20410;-46
2023/12/24 09:02:47;;;;;;;2.42;2.22;;;;;;;12.83;81.75;98806.34;5032750;28;20052;-48
2023/12/24 09:05:14;;;;;;;2.53;2.33;;;;;;;12.83;81.38;98792.47;5030463;28;20674;-48
2023/12/24 09:07:41;;;;;;;2.88;2.72;;;;;;;12.89;81.70;98781.91;5041252;28;20106;-43
2023/12/24 09:10:07;;;;;;;2.65;2.45;;;;;;;12.92;81.37;98797.41;5046370;28;20490;-50
2023/12/24 09:12:34;;;;;;;2.65;2.45;;;;;;;12.92;80.73;98791.34;5044314;28;20513;-48
2023/12/24 09:15:01;;;;;;;2.38;2.28;;;;;;;12.88;81.69;98785.41;5041364;28;20048;-44
2023/12/24 09:17:28;;;;;;;1.95;1.85;;;;;;;12.89;81.55;98781.91;5048875;28;20041;-50
2023/12/24 09:19:55;;;;;;;3.10;2.58;;;;;;;12.89;81.60;98781.03;5046981;28;20041;-44
2023/12/24 09:22:22;;;;;;;3.65;3.45;;;;;;;12.93;81.77;98778.31;5045600;28;20056;-44
2023/12/24 09:24:48;;;;;;;2.55;1.88;;;;;;;12.92;81.26;98775.75;5040469;28;20052;-49
2023/12/24 09:27:15;;;;;;;2.88;2.55;;;;;;;12.92;81.31;98779.22;5042883;28;20056;-45
2023/12/24 09:29:43;;;;;;;2.95;2.38;;;;;;;12.92;81.65;98770.56;5045937;28;20060;-50
2023/12/24 09:32:10;;;;;;;2.28;2.08;;;;;;;12.91;81.41;98764.53;5041669;28;20053;-47
2023/12/24 09:34:36;;;;;;;2.20;2.00;;;;;;;12.97;81.68;98773.88;5045588;28;20045;-44
2023/12/24 09:37:05;;;;;;;0.93;0.60;;;;;;;12.93;81.10;98767.03;5045083;28;20632;-44
2023/12/24 09:39:31;;;;;;;2.30;2.10;;;;;;;12.96;81.15;98767.81;5045100;28;20049;-49
2023/12/24 09:41:58;;;;;;;2.58;2.38;;;;;;;12.99;80.73;98751.25;5038765;28;20434;-47
2023/12/24 09:44:26;;;;;;;2.17;2.05;;;;;;;12.92;81.29;98765.34;5046021;28;20041;-47
2023/12/24 09:46:53;;;;;;;2.50;2.33;;;;;;;12.98;81.18;98766.00;5042677;28;20045;-42
2023/12/24 09:49:20;;;;;;;3.03;2.83;;;;;;;13.00;81.05;98758.16;5042101;28;20056;-49
2023/12/24 09:51:46;;;;;;;2.47;2.30;;;;;;;13.00;80.56;98758.16;5043147;28;20122;-47
2023/12/24 09:54:14;;;;;;;2.75;2.03;;;;;;;12.98;81.00;98760.78;5048614;28;20065;-46
2023/12/24 09:56:40;;;;;;;2.05;1.95;;;;;;;12.99;81.38;98766.84;5046938;28;20114;-44
2023/12/24 09:59:07;;;;;;;2.42;2.22;;;;;;;13.02;81.57;98751.16;5047510;28;20045;-50
2023/12/24 10:01:45;;;;;;;2.08;1.90;;;;;;;13.02;80.62;98756.34;5037874;28;20045;-51
2023/12/24 10:04:13;;;;;;;1.58;1.48;;;;;;;13.05;80.45;98750.19;5039824;28;20048;-47
2023/12/24 10:06:57;;;;;;;2.00;1.90;;;;;;;13.03;81.25;98745.06;5041153;28;20060;-50
2023/12/24 10:09:41;;;;;;;2.22;2.03;;;;;;;13.01;81.31;98744.28;5044406;28;20075;-45
2023/12/24 10:12:11;;;;;;;2.22;2.03;;;;;;;13.09;81.22;98731.88;5040947;28;20059;-45
2023/12/24 10:14:40;;;;;;;3.28;3.03;;;;;;;13.16;81.26;98726.44;5045304;28;20068;-49
2023/12/24 10:17:07;;;;;;;2.03;1.92;;;;;;;13.14;81.64;98736.06;5040297;28;20048;-44
2023/12/24 10:19:34;;;;;;;2.08;1.88;;;;;;;13.15;81.22;98719.53;5045060;28;20045;-45
2023/12/24 10:24:41;;;;;;;0.98;0.82;;;;;;;13.17;80.92;98712.56;5102004;27;20400;-49
2023/12/24 10:27:10;;;;;;;0.70;0.30;;;;;;;13.26;81.30;98709.63;5053522;27;20052;-46
2023/12/24 10:29:39;;;;;;;0.68;0.50;;;;;;;13.30;81.61;98724.19;5047789;28;20056;-48
2023/12/24 10:32:10;;;;;;;1.02;0.63;;;;;;;13.29;80.54;98732.91;5048472;28;20049;-45
2023/12/24 10:34:38;;;;;;;0.73;0.68;;;;;;;13.36;80.91;98733.53;5044709;28;20048;-49
2023/12/24 10:37:17;;;;;;;1.30;0.70;;;;;;;13.40;80.11;98729.09;5049152;28;20076;-53
2023/12/24 10:39:46;;;;;;;4.45;1.98;;;;;;;13.37;80.79;98720.50;5044245;28;20053;-48
2023/12/24 10:42:14;;;;;;;1.42;0.73;;;;;;;13.45;80.97;98727.16;5049569;28;20044;-44
2023/12/24 10:44:41;;;;;;;5.55;1.77;;;;;;;13.51;79.98;98736.53;5046211;28;20073;-51
2023/12/24 10:47:08;;;;;;;1.50;1.30;;;;;;;13.53;80.14;98740.78;5046870;28;20584;-50
2023/12/24 10:49:34;;;;;;;8.68;5.03;;;;;;;13.53;79.53;98753.78;5058931;28;20652;-49
2023/12/24 10:52:01;;;;;;;2.05;1.85;;;;;;;13.49;80.18;98747.00;5061476;28;20048;-50
2023/12/24 10:54:29;;;;;;;2.28;0.82;;;;;;;13.55;79.72;98759.78;5058608;28;20041;-46
2023/12/24 10:57:23;;;;;;;1.27;1.10;;;;;;;13.53;80.15;98734.72;5059737;28;20670;-49
2023/12/24 11:00:06;;;;;;;1.70;1.02;;;;;;;13.52;79.72;98743.44;5059412;28;20110;-51
2023/12/24 11:02:37;;;;;;;1.70;1.15;;;;;;;13.61;79.54;98723.13;5057259;28;20502;-47
2023/12/24 11:05:05;;;;;;;3.78;1.98;;;;;;;13.62;79.73;98727.41;5039085;28;20194;-46
2023/12/24 11:10:08;;;;;;;2.92;2.00;;;;;;;13.91;78.76;98716.00;5074694;27;20397;-50
2023/12/24 11:12:39;;;;;;;1.92;0.82;;;;;;;13.71;79.63;98720.22;5031266;28;20401;-53
2023/12/24 11:15:08;;;;;;;3.10;1.95;;;;;;;13.65;79.59;98723.03;5038045;28;20045;-52
2023/12/24 11:23:10;;;;;;;2.22;0.93;;;;;;;13.45;80.23;98716.78;5034304;28;20413;-51
2023/12/24 11:28:35;;;;;;;1.52;0.77;;;;;;;13.30;80.99;98733.75;5049604;28;20398;-44
2023/12/24 11:31:05;;;;;;;1.08;0.60;;;;;;;13.43;80.92;98726.38;5011650;28;20049;-53
2023/12/24 11:36:13;;;;;;;2.08;1.75;;;;;;;13.41;81.12;98736.00;5057635;27;20888;-52
2023/12/24 11:38:45;;;;;;;1.83;1.73;;;;;;;13.37;81.05;98736.09;5012285;28;20099;-44
2023/12/24 11:43:57;;;;;;;1.90;1.15;;;;;;;13.61;80.49;98728.34;5096813;27;20412;-43
2023/12/24 11:46:26;;;;;;;1.77;0.70;;;;;;;13.36;80.55;98734.41;5075951;28;20049;-49
2023/12/24 11:48:55;;;;;;;0.80;0.65;;;;;;;13.35;81.63;98714.47;5070330;28;20052;-48
2023/12/24 11:51:26;;;;;;;2.72;1.00;;;;;;;13.37;80.74;98711.81;5062023;28;20490;-49
2023/12/24 11:54:10;;;;;;;1.60;0.80;;;;;;;13.34;80.94;98710.19;5058828;28;20095;-46
2023/12/24 11:56:37;;;;;;;2.28;0.90;;;;;;;13.44;80.73;98699.47;5057539;28;20509;-48
2023/12/24 11:59:05;;;;;;;2.92;0.93;;;;;;;13.39;80.67;98703.97;5061871;28;20049;-51